sensor_id;sensor_type;location;lat;lon;timestamp;P1;durP1;ratioP1;P2;durP2;ratioP2
28427;SDS011;15662;49.128;8.520;2023-07-31T00:01:53;1.98;;;1.02;;
28427;SDS011;15662;49.128;8.520;2023-07-31T00:04:23;3.03;;;1.10;;
28427;SDS011;15662;49.128;8.520;2023-07-31T00:06:51;1.90;;;1.10;;
28427;SDS011;15662;49.128;8.520;2023-07-31T00:09:19;1.75;;;1.08;;
28427;SDS011;15662;49.128;8.520;2023-07-31T00:11:49;1.85;;;1.20;;
28427;SDS011;15662;49.128;8.520;2023-07-31T00:14:21;2.05;;;1.05;;
28427;SDS011;15662;49.128;8.520;2023-07-31T00:16:49;2.95;;;1.20;;
28427;SDS011;15662;49.128;8.520;2023-07-31T00:19:19;1.20;;;1.10;;
28427;SDS011;15662;49.128;8.520;2023-07-31T00:21:48;3.08;;;1.20;;
28427;SDS011;15662;49.128;8.520;2023-07-31T00:24:18;1.58;;;1.20;;
28427;SDS011;15662;49.128;8.520;2023-07-31T00:26:47;3.50;;;1.00;;
28427;SDS011;15662;49.128;8.520;2023-07-31T00:29:15;1.98;;;1.00;;
28427;SDS011;15662;49.128;8.520;2023-07-31T00:31:44;1.20;;;1.00;;
28427;SDS011;15662;49.128;8.520;2023-07-31T00:34:13;2.90;;;1.02;;
28427;SDS011;15662;49.128;8.520;2023-07-31T00:36:42;2.78;;;1.10;;
28427;SDS011;15662;49.128;8.520;2023-07-31T00:39:11;1.48;;;1.02;;
28427;SDS011;15662;49.128;8.520;2023-07-31T00:41:41;2.08;;;1.15;;
28427;SDS011;15662;49.128;8.520;2023-07-31T00:44:10;1.65;;;1.13;;
28427;SDS011;15662;49.128;8.520;2023-07-31T00:46:40;3.20;;;1.13;;
28427;SDS011;15662;49.128;8.520;2023-07-31T00:49:11;2.25;;;1.10;;
28427;SDS011;15662;49.128;8.520;2023-07-31T00:51:40;4.10;;;1.30;;
28427;SDS011;15662;49.128;8.520;2023-07-31T00:54:11;1.70;;;1.02;;
28427;SDS011;15662;49.128;8.520;2023-07-31T00:56:45;3.63;;;1.20;;
28427;SDS011;15662;49.128;8.520;2023-07-31T00:59:17;3.60;;;1.17;;
28427;SDS011;15662;49.128;8.520;2023-07-31T01:01:47;2.40;;;1.10;;
28427;SDS011;15662;49.128;8.520;2023-07-31T01:04:16;2.33;;;1.10;;
28427;SDS011;15662;49.128;8.520;2023-07-31T01:10:16;2.72;;;1.20;;
28427;SDS011;15662;49.128;8.520;2023-07-31T01:12:56;3.20;;;1.30;;
28427;SDS011;15662;49.128;8.520;2023-07-31T01:15:25;2.08;;;1.00;;
28427;SDS011;15662;49.128;8.520;2023-07-31T01:17:54;1.85;;;1.05;;
28427;SDS011;15662;49.128;8.520;2023-07-31T01:20:25;2.37;;;1.00;;
28427;SDS011;15662;49.128;8.520;2023-07-31T01:28:56;2.17;;;1.00;;
28427;SDS011;15662;49.128;8.520;2023-07-31T01:31:30;1.33;;;1.10;;
28427;SDS011;15662;49.128;8.520;2023-07-31T01:34:06;2.42;;;1.30;;
28427;SDS011;15662;49.128;8.520;2023-07-31T01:36:36;1.73;;;1.05;;
28427;SDS011;15662;49.128;8.520;2023-07-31T01:39:05;0.90;;;0.90;;
28427;SDS011;15662;49.128;8.520;2023-07-31T01:41:34;2.40;;;1.35;;
28427;SDS011;15662;49.128;8.520;2023-07-31T01:44:05;1.35;;;1.20;;
28427;SDS011;15662;49.128;8.520;2023-07-31T01:46:36;1.75;;;1.20;;
28427;SDS011;15662;49.128;8.520;2023-07-31T01:49:08;1.73;;;1.10;;
28427;SDS011;15662;49.128;8.520;2023-07-31T01:51:41;1.55;;;0.95;;
28427;SDS011;15662;49.128;8.520;2023-07-31T01:54:12;2.35;;;1.13;;
28427;SDS011;15662;49.128;8.520;2023-07-31T01:56:41;1.92;;;1.00;;
28427;SDS011;15662;49.128;8.520;2023-07-31T01:59:09;1.48;;;0.98;;
28427;SDS011;15662;49.128;8.520;2023-07-31T02:01:40;1.67;;;0.93;;
28427;SDS011;15662;49.128;8.520;2023-07-31T02:04:09;3.45;;;1.10;;
28427;SDS011;15662;49.128;8.520;2023-07-31T02:06:38;1.58;;;1.00;;
28427;SDS011;15662;49.128;8.520;2023-07-31T02:09:07;3.13;;;1.10;;
28427;SDS011;15662;49.128;8.520;2023-07-31T02:11:35;2.50;;;1.13;;
28427;SDS011;15662;49.128;8.520;2023-07-31T02:14:06;2.40;;;1.33;;
28427;SDS011;15662;49.128;8.520;2023-07-31T02:16:34;1.55;;;1.10;;
28427;SDS011;15662;49.128;8.520;2023-07-31T02:19:05;2.30;;;1.10;;
28427;SDS011;15662;49.128;8.520;2023-07-31T02:21:33;2.67;;;1.00;;
28427;SDS011;15662;49.128;8.520;2023-07-31T02:24:04;1.55;;;1.30;;
28427;SDS011;15662;49.128;8.520;2023-07-31T02:26:32;2.75;;;1.02;;
28427;SDS011;15662;49.128;8.520;2023-07-31T02:29:03;3.58;;;1.25;;
28427;SDS011;15662;49.128;8.520;2023-07-31T02:31:32;2.25;;;1.20;;
28427;SDS011;15662;49.128;8.520;2023-07-31T02:34:02;2.28;;;1.02;;
28427;SDS011;15662;49.128;8.520;2023-07-31T02:36:30;3.58;;;1.40;;
28427;SDS011;15662;49.128;8.520;2023-07-31T02:39:01;1.73;;;0.98;;
28427;SDS011;15662;49.128;8.520;2023-07-31T02:41:31;2.45;;;1.17;;
28427;SDS011;15662;49.128;8.520;2023-07-31T02:43:59;1.95;;;1.20;;
28427;SDS011;15662;49.128;8.520;2023-07-31T02:46:28;2.15;;;1.00;;
28427;SDS011;15662;49.128;8.520;2023-07-31T02:48:57;1.88;;;1.05;;
28427;SDS011;15662;49.128;8.520;2023-07-31T02:51:27;2.10;;;1.13;;
28427;SDS011;15662;49.128;8.520;2023-07-31T02:53:56;1.42;;;1.10;;
28427;SDS011;15662;49.128;8.520;2023-07-31T02:56:26;1.17;;;1.02;;
28427;SDS011;15662;49.128;8.520;2023-07-31T02:59:02;2.35;;;1.15;;
28427;SDS011;15662;49.128;8.520;2023-07-31T03:01:31;1.77;;;1.00;;
28427;SDS011;15662;49.128;8.520;2023-07-31T03:04:02;1.47;;;1.00;;
28427;SDS011;15662;49.128;8.520;2023-07-31T03:06:34;2.55;;;1.10;;
28427;SDS011;15662;49.128;8.520;2023-07-31T03:09:03;1.83;;;1.10;;
28427;SDS011;15662;49.128;8.520;2023-07-31T03:11:32;1.67;;;1.10;;
28427;SDS011;15662;49.128;8.520;2023-07-31T03:14:03;2.88;;;1.45;;
28427;SDS011;15662;49.128;8.520;2023-07-31T03:16:31;4.40;;;1.00;;
28427;SDS011;15662;49.128;8.520;2023-07-31T03:19:00;2.30;;;1.50;;
28427;SDS011;15662;49.128;8.520;2023-07-31T03:21:28;1.45;;;1.20;;
28427;SDS011;15662;49.128;8.520;2023-07-31T03:23:58;1.30;;;1.15;;
28427;SDS011;15662;49.128;8.520;2023-07-31T03:26:26;3.55;;;1.20;;
28427;SDS011;15662;49.128;8.520;2023-07-31T03:28:55;1.05;;;0.93;;
28427;SDS011;15662;49.128;8.520;2023-07-31T03:31:23;1.67;;;1.10;;
28427;SDS011;15662;49.128;8.520;2023-07-31T03:33:52;1.95;;;1.00;;
28427;SDS011;15662;49.128;8.520;2023-07-31T03:36:23;1.55;;;1.05;;
28427;SDS011;15662;49.128;8.520;2023-07-31T03:38:55;3.03;;;1.00;;
28427;SDS011;15662;49.128;8.520;2023-07-31T03:41:25;2.08;;;1.13;;
28427;SDS011;15662;49.128;8.520;2023-07-31T03:43:55;1.23;;;1.10;;
28427;SDS011;15662;49.128;8.520;2023-07-31T03:46:25;3.28;;;1.30;;
28427;SDS011;15662;49.128;8.520;2023-07-31T03:48:53;1.35;;;1.08;;
28427;SDS011;15662;49.128;8.520;2023-07-31T03:51:25;1.55;;;1.27;;
28427;SDS011;15662;49.128;8.520;2023-07-31T03:53:54;2.55;;;1.30;;
28427;SDS011;15662;49.128;8.520;2023-07-31T03:56:23;1.63;;;1.25;;
28427;SDS011;15662;49.128;8.520;2023-07-31T03:58:52;2.20;;;1.08;;
28427;SDS011;15662;49.128;8.520;2023-07-31T04:01:22;1.15;;;1.00;;
28427;SDS011;15662;49.128;8.520;2023-07-31T04:03:53;1.25;;;1.15;;
28427;SDS011;15662;49.128;8.520;2023-07-31T04:06:21;2.35;;;1.10;;
28427;SDS011;15662;49.128;8.520;2023-07-31T04:08:52;2.50;;;1.30;;
28427;SDS011;15662;49.128;8.520;2023-07-31T04:11:20;2.38;;;1.10;;
28427;SDS011;15662;49.128;8.520;2023-07-31T04:13:49;5.70;;;1.15;;
28427;SDS011;15662;49.128;8.520;2023-07-31T04:16:18;2.65;;;1.20;;
28427;SDS011;15662;49.128;8.520;2023-07-31T04:18:46;3.92;;;1.30;;
28427;SDS011;15662;49.128;8.520;2023-07-31T04:21:14;1.55;;;1.08;;
28427;SDS011;15662;49.128;8.520;2023-07-31T04:23:43;2.30;;;1.27;;
28427;SDS011;15662;49.128;8.520;2023-07-31T04:26:14;2.45;;;1.30;;
28427;SDS011;15662;49.128;8.520;2023-07-31T04:28:44;1.80;;;1.13;;
28427;SDS011;15662;49.128;8.520;2023-07-31T04:31:12;2.53;;;1.40;;
28427;SDS011;15662;49.128;8.520;2023-07-31T04:33:41;1.10;;;1.00;;
28427;SDS011;15662;49.128;8.520;2023-07-31T04:36:09;3.10;;;1.30;;
28427;SDS011;15662;49.128;8.520;2023-07-31T04:38:38;1.40;;;1.10;;
28427;SDS011;15662;49.128;8.520;2023-07-31T04:41:07;2.75;;;1.45;;
28427;SDS011;15662;49.128;8.520;2023-07-31T04:43:36;1.65;;;1.20;;
28427;SDS011;15662;49.128;8.520;2023-07-31T04:46:06;1.75;;;1.27;;
28427;SDS011;15662;49.128;8.520;2023-07-31T04:48:37;3.08;;;1.40;;
28427;SDS011;15662;49.128;8.520;2023-07-31T04:51:06;1.42;;;1.10;;
28427;SDS011;15662;49.128;8.520;2023-07-31T04:53:34;2.35;;;1.30;;
28427;SDS011;15662;49.128;8.520;2023-07-31T04:56:03;1.27;;;1.10;;
28427;SDS011;15662;49.128;8.520;2023-07-31T04:58:33;1.73;;;1.23;;
28427;SDS011;15662;49.128;8.520;2023-07-31T05:01:01;2.22;;;1.33;;
28427;SDS011;15662;49.128;8.520;2023-07-31T05:03:30;1.95;;;1.25;;
28427;SDS011;15662;49.128;8.520;2023-07-31T05:05:59;2.40;;;1.35;;
28427;SDS011;15662;49.128;8.520;2023-07-31T05:08:29;2.35;;;1.27;;
28427;SDS011;15662;49.128;8.520;2023-07-31T05:11:03;1.77;;;1.02;;
28427;SDS011;15662;49.128;8.520;2023-07-31T05:13:33;2.00;;;1.40;;
28427;SDS011;15662;49.128;8.520;2023-07-31T05:16:04;2.80;;;1.33;;
28427;SDS011;15662;49.128;8.520;2023-07-31T05:18:33;2.05;;;1.27;;
28427;SDS011;15662;49.128;8.520;2023-07-31T05:21:02;2.60;;;1.30;;
28427;SDS011;15662;49.128;8.520;2023-07-31T05:23:34;4.20;;;1.40;;
28427;SDS011;15662;49.128;8.520;2023-07-31T05:26:04;3.72;;;1.40;;
28427;SDS011;15662;49.128;8.520;2023-07-31T05:28:44;2.22;;;1.20;;
28427;SDS011;15662;49.128;8.520;2023-07-31T05:31:13;1.13;;;1.13;;
28427;SDS011;15662;49.128;8.520;2023-07-31T05:33:42;2.65;;;1.10;;
28427;SDS011;15662;49.128;8.520;2023-07-31T05:36:12;3.10;;;1.35;;
28427;SDS011;15662;49.128;8.520;2023-07-31T05:38:41;2.40;;;1.40;;
28427;SDS011;15662;49.128;8.520;2023-07-31T05:41:12;2.40;;;1.42;;
28427;SDS011;15662;49.128;8.520;2023-07-31T05:43:41;2.33;;;1.30;;
28427;SDS011;15662;49.128;8.520;2023-07-31T05:46:14;1.92;;;1.30;;
28427;SDS011;15662;49.128;8.520;2023-07-31T05:48:46;2.00;;;1.27;;
28427;SDS011;15662;49.128;8.520;2023-07-31T05:51:14;2.20;;;1.30;;
28427;SDS011;15662;49.128;8.520;2023-07-31T05:53:42;3.63;;;1.30;;
28427;SDS011;15662;49.128;8.520;2023-07-31T05:56:11;1.83;;;1.50;;
28427;SDS011;15662;49.128;8.520;2023-07-31T05:58:40;2.88;;;1.50;;
28427;SDS011;15662;49.128;8.520;2023-07-31T06:01:08;1.73;;;1.50;;
28427;SDS011;15662;49.128;8.520;2023-07-31T06:03:37;1.73;;;1.30;;
28427;SDS011;15662;49.128;8.520;2023-07-31T06:06:05;2.13;;;1.20;;
28427;SDS011;15662;49.128;8.520;2023-07-31T06:08:34;2.40;;;1.30;;
28427;SDS011;15662;49.128;8.520;2023-07-31T06:11:03;2.47;;;1.33;;
28427;SDS011;15662;49.128;8.520;2023-07-31T06:16:03;1.95;;;1.10;;
28427;SDS011;15662;49.128;8.520;2023-07-31T06:18:34;2.00;;;1.10;;
28427;SDS011;15662;49.128;8.520;2023-07-31T06:21:02;2.65;;;1.33;;
28427;SDS011;15662;49.128;8.520;2023-07-31T06:23:31;2.50;;;1.00;;
28427;SDS011;15662;49.128;8.520;2023-07-31T06:26:00;2.47;;;1.33;;
28427;SDS011;15662;49.128;8.520;2023-07-31T06:28:29;2.90;;;1.40;;
28427;SDS011;15662;49.128;8.520;2023-07-31T06:31:01;1.77;;;1.30;;
28427;SDS011;15662;49.128;8.520;2023-07-31T06:33:33;2.33;;;1.20;;
28427;SDS011;15662;49.128;8.520;2023-07-31T06:36:01;3.70;;;1.42;;
28427;SDS011;15662;49.128;8.520;2023-07-31T06:38:32;1.42;;;1.23;;
28427;SDS011;15662;49.128;8.520;2023-07-31T06:41:02;4.43;;;1.52;;
28427;SDS011;15662;49.128;8.520;2023-07-31T06:43:33;2.03;;;1.38;;
28427;SDS011;15662;49.128;8.520;2023-07-31T06:46:05;3.65;;;1.20;;
28427;SDS011;15662;49.128;8.520;2023-07-31T06:48:35;1.48;;;1.20;;
28427;SDS011;15662;49.128;8.520;2023-07-31T06:51:05;2.10;;;1.42;;
28427;SDS011;15662;49.128;8.520;2023-07-31T06:53:34;5.85;;;1.60;;
28427;SDS011;15662;49.128;8.520;2023-07-31T06:56:03;1.88;;;1.38;;
28427;SDS011;15662;49.128;8.520;2023-07-31T06:58:31;2.72;;;1.55;;
28427;SDS011;15662;49.128;8.520;2023-07-31T07:01:00;1.30;;;1.20;;
28427;SDS011;15662;49.128;8.520;2023-07-31T07:03:29;2.83;;;1.50;;
28427;SDS011;15662;49.128;8.520;2023-07-31T07:05:58;3.50;;;1.48;;
28427;SDS011;15662;49.128;8.520;2023-07-31T07:08:27;1.55;;;1.30;;
28427;SDS011;15662;49.128;8.520;2023-07-31T07:10:59;3.28;;;1.30;;
28427;SDS011;15662;49.128;8.520;2023-07-31T07:13:28;1.55;;;1.33;;
28427;SDS011;15662;49.128;8.520;2023-07-31T07:15:59;5.88;;;1.20;;
28427;SDS011;15662;49.128;8.520;2023-07-31T07:18:28;1.92;;;1.33;;
28427;SDS011;15662;49.128;8.520;2023-07-31T07:20:58;3.33;;;1.60;;
28427;SDS011;15662;49.128;8.520;2023-07-31T07:23:29;2.88;;;1.60;;
28427;SDS011;15662;49.128;8.520;2023-07-31T07:25:58;1.85;;;1.20;;
28427;SDS011;15662;49.128;8.520;2023-07-31T07:28:28;11.33;;;1.40;;
28427;SDS011;15662;49.128;8.520;2023-07-31T07:30:58;1.73;;;1.30;;
28427;SDS011;15662;49.128;8.520;2023-07-31T07:33:28;3.20;;;1.52;;
28427;SDS011;15662;49.128;8.520;2023-07-31T07:36:00;1.60;;;1.33;;
28427;SDS011;15662;49.128;8.520;2023-07-31T07:38:29;2.17;;;1.40;;
28427;SDS011;15662;49.128;8.520;2023-07-31T07:40:59;2.50;;;1.40;;
28427;SDS011;15662;49.128;8.520;2023-07-31T07:43:29;3.00;;;1.23;;
28427;SDS011;15662;49.128;8.520;2023-07-31T07:45:57;1.80;;;1.20;;
28427;SDS011;15662;49.128;8.520;2023-07-31T07:48:28;4.28;;;1.63;;
28427;SDS011;15662;49.128;8.520;2023-07-31T07:50:57;1.33;;;1.20;;
28427;SDS011;15662;49.128;8.520;2023-07-31T07:53:26;2.10;;;1.20;;
28427;SDS011;15662;49.128;8.520;2023-07-31T07:55:55;4.00;;;1.45;;
28427;SDS011;15662;49.128;8.520;2023-07-31T07:58:30;3.30;;;1.52;;
28427;SDS011;15662;49.128;8.520;2023-07-31T08:01:00;5.03;;;1.40;;
28427;SDS011;15662;49.128;8.520;2023-07-31T08:03:29;1.73;;;1.27;;
28427;SDS011;15662;49.128;8.520;2023-07-31T08:05:58;2.60;;;1.30;;
28427;SDS011;15662;49.128;8.520;2023-07-31T08:08:29;2.65;;;1.50;;
28427;SDS011;15662;49.128;8.520;2023-07-31T08:10:57;3.00;;;1.42;;
28427;SDS011;15662;49.128;8.520;2023-07-31T08:13:26;1.55;;;1.30;;
28427;SDS011;15662;49.128;8.520;2023-07-31T08:15:55;3.17;;;1.45;;
28427;SDS011;15662;49.128;8.520;2023-07-31T08:18:24;3.38;;;1.55;;
28427;SDS011;15662;49.128;8.520;2023-07-31T08:20:53;3.30;;;1.70;;
28427;SDS011;15662;49.128;8.520;2023-07-31T08:23:22;3.42;;;1.35;;
28427;SDS011;15662;49.128;8.520;2023-07-31T08:25:51;4.22;;;1.70;;
28427;SDS011;15662;49.128;8.520;2023-07-31T08:28:21;2.58;;;1.55;;
28427;SDS011;15662;49.128;8.520;2023-07-31T08:30:50;2.92;;;1.35;;
28427;SDS011;15662;49.128;8.520;2023-07-31T08:33:19;2.17;;;1.25;;
28427;SDS011;15662;49.128;8.520;2023-07-31T08:35:48;3.13;;;1.33;;
28427;SDS011;15662;49.128;8.520;2023-07-31T08:38:16;1.52;;;1.35;;
28427;SDS011;15662;49.128;8.520;2023-07-31T08:40:44;1.77;;;1.50;;
28427;SDS011;15662;49.128;8.520;2023-07-31T08:43:14;4.05;;;1.52;;
28427;SDS011;15662;49.128;8.520;2023-07-31T08:45:42;2.00;;;1.58;;
28427;SDS011;15662;49.128;8.520;2023-07-31T08:48:11;3.22;;;1.60;;
28427;SDS011;15662;49.128;8.520;2023-07-31T08:50:41;2.20;;;1.45;;
28427;SDS011;15662;49.128;8.520;2023-07-31T08:53:11;4.80;;;1.60;;
28427;SDS011;15662;49.128;8.520;2023-07-31T08:55:41;2.33;;;1.67;;
28427;SDS011;15662;49.128;8.520;2023-07-31T08:58:10;2.40;;;1.40;;
28427;SDS011;15662;49.128;8.520;2023-07-31T09:00:42;2.75;;;1.60;;
28427;SDS011;15662;49.128;8.520;2023-07-31T09:03:14;2.35;;;1.35;;
28427;SDS011;15662;49.128;8.520;2023-07-31T09:05:46;2.90;;;1.67;;
28427;SDS011;15662;49.128;8.520;2023-07-31T09:08:18;1.48;;;1.38;;
28427;SDS011;15662;49.128;8.520;2023-07-31T09:13:20;2.17;;;1.55;;
28427;SDS011;15662;49.128;8.520;2023-07-31T09:15:48;1.70;;;1.50;;
28427;SDS011;15662;49.128;8.520;2023-07-31T09:18:17;1.90;;;1.38;;
28427;SDS011;15662;49.128;8.520;2023-07-31T09:21:00;4.30;;;1.92;;
28427;SDS011;15662;49.128;8.520;2023-07-31T09:23:44;2.42;;;1.63;;
28427;SDS011;15662;49.128;8.520;2023-07-31T09:26:32;3.38;;;1.80;;
28427;SDS011;15662;49.128;8.520;2023-07-31T09:29:04;2.15;;;1.40;;
28427;SDS011;15662;49.128;8.520;2023-07-31T09:31:46;1.77;;;1.65;;
28427;SDS011;15662;49.128;8.520;2023-07-31T09:34:14;2.88;;;1.80;;
28427;SDS011;15662;49.128;8.520;2023-07-31T09:36:45;2.15;;;1.50;;
28427;SDS011;15662;49.128;8.520;2023-07-31T09:39:17;2.53;;;1.65;;
28427;SDS011;15662;49.128;8.520;2023-07-31T09:41:55;4.10;;;1.73;;
28427;SDS011;15662;49.128;8.520;2023-07-31T09:44:41;4.00;;;1.67;;
28427;SDS011;15662;49.128;8.520;2023-07-31T09:47:23;2.92;;;1.50;;
28427;SDS011;15662;49.128;8.520;2023-07-31T09:49:54;2.22;;;1.65;;
28427;SDS011;15662;49.128;8.520;2023-07-31T09:52:24;3.22;;;2.00;;
28427;SDS011;15662;49.128;8.520;2023-07-31T09:54:56;2.25;;;1.70;;
28427;SDS011;15662;49.128;8.520;2023-07-31T09:57:25;3.67;;;1.88;;
28427;SDS011;15662;49.128;8.520;2023-07-31T09:59:56;2.83;;;1.90;;
28427;SDS011;15662;49.128;8.520;2023-07-31T10:02:26;4.13;;;2.20;;
28427;SDS011;15662;49.128;8.520;2023-07-31T10:04:57;2.90;;;2.00;;
28427;SDS011;15662;49.128;8.520;2023-07-31T10:07:32;6.78;;;1.90;;
28427;SDS011;15662;49.128;8.520;2023-07-31T10:10:07;5.13;;;1.92;;
28427;SDS011;15662;49.128;8.520;2023-07-31T10:12:42;2.08;;;1.75;;
28427;SDS011;15662;49.128;8.520;2023-07-31T10:17:42;4.43;;;1.70;;
28427;SDS011;15662;49.128;8.520;2023-07-31T10:20:17;2.72;;;1.95;;
28427;SDS011;15662;49.128;8.520;2023-07-31T10:22:46;4.22;;;2.17;;
28427;SDS011;15662;49.128;8.520;2023-07-31T10:25:15;2.97;;;1.80;;
28427;SDS011;15662;49.128;8.520;2023-07-31T10:27:47;2.97;;;2.13;;
28427;SDS011;15662;49.128;8.520;2023-07-31T10:30:19;2.83;;;1.65;;
28427;SDS011;15662;49.128;8.520;2023-07-31T10:32:56;3.85;;;1.77;;
28427;SDS011;15662;49.128;8.520;2023-07-31T10:35:27;2.92;;;1.75;;
28427;SDS011;15662;49.128;8.520;2023-07-31T10:40:40;2.60;;;1.83;;
28427;SDS011;15662;49.128;8.520;2023-07-31T10:43:10;3.05;;;1.88;;
28427;SDS011;15662;49.128;8.520;2023-07-31T10:45:55;3.10;;;1.80;;
28427;SDS011;15662;49.128;8.520;2023-07-31T10:48:25;2.72;;;1.95;;
28427;SDS011;15662;49.128;8.520;2023-07-31T10:51:07;2.53;;;1.73;;
28427;SDS011;15662;49.128;8.520;2023-07-31T10:54:10;2.47;;;1.65;;
28427;SDS011;15662;49.128;8.520;2023-07-31T10:57:03;3.10;;;1.58;;
28427;SDS011;15662;49.128;8.520;2023-07-31T10:59:51;5.72;;;1.85;;
28427;SDS011;15662;49.128;8.520;2023-07-31T11:02:56;3.35;;;2.10;;
28427;SDS011;15662;49.128;8.520;2023-07-31T11:05:47;2.03;;;1.63;;
28427;SDS011;15662;49.128;8.520;2023-07-31T11:08:35;3.45;;;1.80;;
28427;SDS011;15662;49.128;8.520;2023-07-31T11:11:14;3.38;;;1.60;;
28427;SDS011;15662;49.128;8.520;2023-07-31T11:13:49;3.47;;;2.00;;
28427;SDS011;15662;49.128;8.520;2023-07-31T11:16:22;2.45;;;1.80;;
28427;SDS011;15662;49.128;8.520;2023-07-31T11:18:54;2.50;;;1.67;;
28427;SDS011;15662;49.128;8.520;2023-07-31T11:21:25;3.33;;;1.80;;
28427;SDS011;15662;49.128;8.520;2023-07-31T11:23:57;2.72;;;1.70;;
28427;SDS011;15662;49.128;8.520;2023-07-31T11:26:29;2.08;;;1.67;;
28427;SDS011;15662;49.128;8.520;2023-07-31T11:28:58;5.20;;;2.13;;
28427;SDS011;15662;49.128;8.520;2023-07-31T11:31:26;3.35;;;1.83;;
28427;SDS011;15662;49.128;8.520;2023-07-31T11:34:06;2.65;;;1.65;;
28427;SDS011;15662;49.128;8.520;2023-07-31T11:36:37;6.27;;;1.97;;
28427;SDS011;15662;49.128;8.520;2023-07-31T11:39:07;2.35;;;1.67;;
28427;SDS011;15662;49.128;8.520;2023-07-31T11:41:40;1.92;;;1.73;;
28427;SDS011;15662;49.128;8.520;2023-07-31T11:44:08;1.85;;;1.63;;
28427;SDS011;15662;49.128;8.520;2023-07-31T11:46:58;4.85;;;1.85;;
28427;SDS011;15662;49.128;8.520;2023-07-31T11:49:32;2.65;;;1.67;;
28427;SDS011;15662;49.128;8.520;2023-07-31T11:52:06;2.92;;;1.90;;
28427;SDS011;15662;49.128;8.520;2023-07-31T11:54:37;2.60;;;1.77;;
28427;SDS011;15662;49.128;8.520;2023-07-31T11:57:11;3.20;;;1.85;;
28427;SDS011;15662;49.128;8.520;2023-07-31T11:59:45;4.00;;;1.85;;
28427;SDS011;15662;49.128;8.520;2023-07-31T12:02:16;2.63;;;1.77;;
28427;SDS011;15662;49.128;8.520;2023-07-31T12:04:46;2.75;;;1.90;;
28427;SDS011;15662;49.128;8.520;2023-07-31T12:07:18;4.55;;;1.90;;
28427;SDS011;15662;49.128;8.520;2023-07-31T12:09:53;3.72;;;2.05;;
28427;SDS011;15662;49.128;8.520;2023-07-31T12:12:25;5.15;;;1.77;;
28427;SDS011;15662;49.128;8.520;2023-07-31T12:14:54;3.07;;;1.90;;
28427;SDS011;15662;49.128;8.520;2023-07-31T12:17:23;3.17;;;1.63;;
28427;SDS011;15662;49.128;8.520;2023-07-31T12:19:57;2.33;;;1.60;;
28427;SDS011;15662;49.128;8.520;2023-07-31T12:22:27;1.50;;;1.38;;
28427;SDS011;15662;49.128;8.520;2023-07-31T12:24:56;2.55;;;1.65;;
28427;SDS011;15662;49.128;8.520;2023-07-31T12:27:32;2.95;;;1.60;;
28427;SDS011;15662;49.128;8.520;2023-07-31T12:30:01;3.40;;;1.75;;
28427;SDS011;15662;49.128;8.520;2023-07-31T12:32:30;1.80;;;1.70;;
28427;SDS011;15662;49.128;8.520;2023-07-31T12:35:00;2.83;;;2.00;;
28427;SDS011;15662;49.128;8.520;2023-07-31T12:37:30;2.67;;;1.77;;
28427;SDS011;15662;49.128;8.520;2023-07-31T12:39:59;2.85;;;1.83;;
28427;SDS011;15662;49.128;8.520;2023-07-31T12:42:36;2.00;;;1.70;;
28427;SDS011;15662;49.128;8.520;2023-07-31T12:45:04;3.58;;;1.80;;
28427;SDS011;15662;49.128;8.520;2023-07-31T12:47:33;5.22;;;2.10;;
28427;SDS011;15662;49.128;8.520;2023-07-31T12:50:01;2.45;;;1.85;;
28427;SDS011;15662;49.128;8.520;2023-07-31T12:52:29;2.60;;;1.83;;
28427;SDS011;15662;49.128;8.520;2023-07-31T12:54:57;3.38;;;1.98;;
28427;SDS011;15662;49.128;8.520;2023-07-31T12:57:25;2.40;;;1.98;;
28427;SDS011;15662;49.128;8.520;2023-07-31T12:59:52;2.17;;;1.80;;
28427;SDS011;15662;49.128;8.520;2023-07-31T13:02:20;1.90;;;1.67;;
28427;SDS011;15662;49.128;8.520;2023-07-31T13:04:52;1.85;;;1.70;;
28427;SDS011;15662;49.128;8.520;2023-07-31T13:07:21;4.15;;;1.77;;
28427;SDS011;15662;49.128;8.520;2023-07-31T13:09:51;2.72;;;1.85;;
28427;SDS011;15662;49.128;8.520;2023-07-31T13:12:19;3.45;;;1.98;;
28427;SDS011;15662;49.128;8.520;2023-07-31T13:14:47;2.70;;;1.80;;
28427;SDS011;15662;49.128;8.520;2023-07-31T13:17:19;3.28;;;1.80;;
28427;SDS011;15662;49.128;8.520;2023-07-31T13:19:47;1.85;;;1.45;;
28427;SDS011;15662;49.128;8.520;2023-07-31T13:22:15;1.65;;;1.55;;
28427;SDS011;15662;49.128;8.520;2023-07-31T13:24:44;2.42;;;1.58;;
28427;SDS011;15662;49.128;8.520;2023-07-31T13:27:12;2.65;;;1.60;;
28427;SDS011;15662;49.128;8.520;2023-07-31T13:29:40;2.85;;;1.80;;
28427;SDS011;15662;49.128;8.520;2023-07-31T13:32:09;3.92;;;2.08;;
28427;SDS011;15662;49.128;8.520;2023-07-31T13:34:37;3.88;;;1.60;;
28427;SDS011;15662;49.128;8.520;2023-07-31T13:37:05;1.92;;;1.40;;
28427;SDS011;15662;49.128;8.520;2023-07-31T13:39:33;2.53;;;1.88;;
28427;SDS011;15662;49.128;8.520;2023-07-31T13:42:05;5.65;;;2.05;;
28427;SDS011;15662;49.128;8.520;2023-07-31T13:44:35;1.77;;;1.45;;
28427;SDS011;15662;49.128;8.520;2023-07-31T13:47:03;2.60;;;1.60;;
28427;SDS011;15662;49.128;8.520;2023-07-31T13:49:32;2.30;;;1.60;;
28427;SDS011;15662;49.128;8.520;2023-07-31T13:52:01;2.10;;;1.60;;
28427;SDS011;15662;49.128;8.520;2023-07-31T13:54:31;2.17;;;1.52;;
28427;SDS011;15662;49.128;8.520;2023-07-31T13:56:59;3.22;;;1.55;;
28427;SDS011;15662;49.128;8.520;2023-07-31T13:59:27;4.10;;;1.70;;
28427;SDS011;15662;49.128;8.520;2023-07-31T14:01:57;2.95;;;1.50;;
28427;SDS011;15662;49.128;8.520;2023-07-31T14:04:25;3.08;;;1.98;;
28427;SDS011;15662;49.128;8.520;2023-07-31T14:06:53;2.42;;;1.67;;
28427;SDS011;15662;49.128;8.520;2023-07-31T14:09:23;1.88;;;1.60;;
28427;SDS011;15662;49.128;8.520;2023-07-31T14:11:52;2.63;;;1.73;;
28427;SDS011;15662;49.128;8.520;2023-07-31T14:14:21;3.25;;;1.85;;
28427;SDS011;15662;49.128;8.520;2023-07-31T14:16:49;6.15;;;1.80;;
28427;SDS011;15662;49.128;8.520;2023-07-31T14:19:17;2.05;;;1.80;;
28427;SDS011;15662;49.128;8.520;2023-07-31T14:21:46;2.30;;;1.60;;
28427;SDS011;15662;49.128;8.520;2023-07-31T14:24:27;1.60;;;1.42;;
28427;SDS011;15662;49.128;8.520;2023-07-31T14:26:55;2.72;;;1.70;;
28427;SDS011;15662;49.128;8.520;2023-07-31T14:29:23;1.90;;;1.60;;
28427;SDS011;15662;49.128;8.520;2023-07-31T14:31:53;2.38;;;1.88;;
28427;SDS011;15662;49.128;8.520;2023-07-31T14:34:21;3.17;;;1.88;;
28427;SDS011;15662;49.128;8.520;2023-07-31T14:36:49;2.80;;;1.67;;
28427;SDS011;15662;49.128;8.520;2023-07-31T14:39:16;3.00;;;1.92;;
28427;SDS011;15662;49.128;8.520;2023-07-31T14:41:45;3.65;;;1.80;;
28427;SDS011;15662;49.128;8.520;2023-07-31T14:44:16;1.50;;;1.40;;
28427;SDS011;15662;49.128;8.520;2023-07-31T14:46:47;3.08;;;1.75;;
28427;SDS011;15662;49.128;8.520;2023-07-31T14:49:15;3.67;;;1.63;;
28427;SDS011;15662;49.128;8.520;2023-07-31T14:51:46;4.88;;;1.70;;
28427;SDS011;15662;49.128;8.520;2023-07-31T14:54:15;2.20;;;1.75;;
28427;SDS011;15662;49.128;8.520;2023-07-31T14:56:45;2.65;;;1.63;;
28427;SDS011;15662;49.128;8.520;2023-07-31T14:59:13;3.83;;;2.13;;
28427;SDS011;15662;49.128;8.520;2023-07-31T15:01:40;2.38;;;1.58;;
28427;SDS011;15662;49.128;8.520;2023-07-31T15:04:08;4.30;;;1.70;;
28427;SDS011;15662;49.128;8.520;2023-07-31T15:06:36;2.80;;;1.90;;
28427;SDS011;15662;49.128;8.520;2023-07-31T15:09:05;2.58;;;1.65;;
28427;SDS011;15662;49.128;8.520;2023-07-31T15:11:32;1.90;;;1.63;;
28427;SDS011;15662;49.128;8.520;2023-07-31T15:14:00;2.67;;;1.80;;
28427;SDS011;15662;49.128;8.520;2023-07-31T15:16:28;2.15;;;1.95;;
28427;SDS011;15662;49.128;8.520;2023-07-31T15:18:58;2.67;;;1.70;;
28427;SDS011;15662;49.128;8.520;2023-07-31T15:21:26;3.65;;;1.83;;
28427;SDS011;15662;49.128;8.520;2023-07-31T15:23:54;2.05;;;1.85;;
28427;SDS011;15662;49.128;8.520;2023-07-31T15:26:22;2.63;;;1.95;;
28427;SDS011;15662;49.128;8.520;2023-07-31T15:28:55;2.03;;;1.70;;